createdAt,value
2018-05-26T00:01:52.839Z,99.90
2018-05-26T00:04:21.097Z,99.90
2018-05-26T00:06:49.542Z,99.90
2018-05-26T00:09:21.401Z,99.90
2018-05-26T00:11:49.628Z,99.90
2018-05-26T00:14:17.832Z,99.90
2018-05-26T00:16:46.055Z,99.90
2018-05-26T00:19:15.052Z,99.90
2018-05-26T00:21:44.066Z,99.90
2018-05-26T00:24:12.315Z,99.90
2018-05-26T00:26:41.300Z,99.90
2018-05-26T00:29:11.392Z,99.90
2018-05-26T00:31:39.640Z,99.90
2018-05-26T00:34:08.799Z,99.90
2018-05-26T00:36:37.110Z,99.90
2018-05-26T00:39:06.547Z,99.90
2018-05-26T00:41:34.932Z,99.90
2018-05-26T00:44:03.152Z,99.90
2018-05-26T00:46:32.182Z,99.90
2018-05-26T00:49:00.435Z,99.90
2018-05-26T00:51:28.709Z,99.90
2018-05-26T00:53:57.705Z,99.90
2018-05-26T00:56:25.925Z,99.90
2018-05-26T00:58:54.187Z,99.90
2018-05-26T01:01:22.377Z,99.90
2018-05-26T01:03:50.599Z,99.90
2018-05-26T01:06:19.381Z,99.90
2018-05-26T01:08:47.621Z,99.90
2018-05-26T01:11:15.853Z,99.90
2018-05-26T01:13:44.829Z,99.90
2018-05-26T01:16:13.848Z,99.90
2018-05-26T01:18:43.009Z,99.90
2018-05-26T01:21:12.779Z,99.90
2018-05-26T01:23:41.133Z,99.90
2018-05-26T01:26:09.423Z,99.90
2018-05-26T01:28:38.307Z,99.90
2018-05-26T01:31:06.559Z,99.90
2018-05-26T01:33:34.876Z,99.90
2018-05-26T01:36:03.924Z,99.90
2018-05-26T01:38:33.710Z,99.90
2018-05-26T01:41:01.993Z,99.90
2018-05-26T01:43:31.737Z,99.90
2018-05-26T01:46:00.770Z,99.90
2018-05-26T01:48:29.892Z,99.90
2018-05-26T01:50:58.274Z,99.90
2018-05-26T01:53:26.507Z,99.90
2018-05-26T01:55:56.780Z,99.90
2018-05-26T01:58:25.000Z,99.90
2018-05-26T02:00:53.352Z,99.90
2018-05-26T02:03:22.148Z,99.90
2018-05-26T02:05:50.431Z,99.90
2018-05-26T02:08:18.808Z,99.90
2018-05-26T02:10:47.195Z,99.90
2018-05-26T02:13:15.467Z,99.90
2018-05-26T02:15:43.809Z,99.90
2018-05-26T02:18:12.043Z,99.90
2018-05-26T02:20:40.243Z,99.90
2018-05-26T02:23:09.225Z,99.90
2018-05-26T02:25:37.464Z,99.90
2018-05-26T02:28:05.741Z,99.90
2018-05-26T02:30:34.134Z,99.90
2018-05-26T02:33:02.942Z,99.90
2018-05-26T02:35:33.287Z,99.90
2018-05-26T02:38:02.313Z,99.90
2018-05-26T02:40:30.606Z,99.90
2018-05-26T02:42:58.887Z,99.90
2018-05-26T02:45:28.956Z,99.90
2018-05-26T02:47:57.983Z,99.90
2018-05-26T02:50:26.253Z,99.90
2018-05-26T02:52:55.281Z,99.90
2018-05-26T02:55:24.434Z,99.90
2018-05-26T02:57:53.425Z,99.90
2018-05-26T03:00:22.627Z,99.90
2018-05-26T03:02:51.673Z,99.90
2018-05-26T03:05:26.195Z,99.90
2018-05-26T03:08:01.438Z,99.90
2018-05-26T03:10:35.571Z,99.90
2018-05-26T03:13:09.671Z,99.90
2018-05-26T03:15:39.550Z,99.90
2018-05-26T03:18:10.798Z,99.90
2018-05-26T03:20:39.017Z,99.90
2018-05-26T03:23:07.290Z,99.90
2018-05-26T03:25:37.057Z,99.90
2018-05-26T03:28:06.100Z,99.90
2018-05-26T03:30:34.488Z,99.90
2018-05-26T03:33:02.852Z,99.90
2018-05-26T03:35:31.048Z,99.90
2018-05-26T03:37:59.532Z,99.90
2018-05-26T03:40:27.747Z,99.90
2018-05-26T03:42:56.778Z,99.90
2018-05-26T03:45:25.268Z,99.90
2018-05-26T03:47:53.742Z,99.90
2018-05-26T03:50:22.043Z,99.90
2018-05-26T03:52:50.366Z,99.90
2018-05-26T03:55:39.482Z,99.90
2018-05-26T03:58:21.337Z,99.90
2018-05-26T04:00:49.760Z,99.90
2018-05-26T04:03:17.953Z,99.90
2018-05-26T04:05:46.198Z,99.90
2018-05-26T04:08:17.577Z,99.90
2018-05-26T04:13:35.656Z,99.90
2018-05-26T04:16:04.825Z,99.90
2018-05-26T04:18:34.105Z,99.90
2018-05-26T04:21:02.353Z,99.90
2018-05-26T04:23:31.395Z,99.90
2018-05-26T04:25:59.839Z,99.90
2018-05-26T04:28:28.170Z,99.90
2018-05-26T04:30:56.435Z,99.90
2018-05-26T04:33:26.147Z,99.90
2018-05-26T04:35:54.539Z,99.90
2018-05-26T04:38:22.807Z,99.90
2018-05-26T04:40:51.931Z,99.90
2018-05-26T04:43:20.902Z,99.90
2018-05-26T04:45:49.808Z,99.90
2018-05-26T04:48:19.748Z,99.90
2018-05-26T04:50:49.137Z,99.90
2018-05-26T04:53:18.831Z,99.90
2018-05-26T04:55:47.051Z,99.90
2018-05-26T04:58:16.536Z,99.90
2018-05-26T05:00:44.812Z,99.90
2018-05-26T05:03:13.166Z,99.90
2018-05-26T05:05:42.281Z,99.90
2018-05-26T05:08:10.590Z,99.90
2018-05-26T05:10:38.906Z,99.90
2018-05-26T05:13:07.423Z,99.90
2018-05-26T05:15:35.726Z,99.90
2018-05-26T05:18:05.104Z,99.90
2018-05-26T05:20:33.538Z,99.90
2018-05-26T05:23:01.800Z,99.90
2018-05-26T05:25:30.793Z,99.90
2018-05-26T05:27:59.933Z,99.90
2018-05-26T05:30:28.179Z,99.90
2018-05-26T05:32:56.423Z,99.90
2018-05-26T05:35:24.731Z,99.90
2018-05-26T05:37:53.818Z,99.90
2018-05-26T05:40:23.176Z,99.90
2018-05-26T05:42:52.264Z,99.90
2018-05-26T05:45:20.666Z,99.90
2018-05-26T05:47:48.925Z,99.90
2018-05-26T05:50:17.190Z,99.90
2018-05-26T05:52:45.691Z,99.90
2018-05-26T05:55:13.976Z,99.90
2018-05-26T05:57:43.330Z,99.90
2018-05-26T06:00:11.559Z,99.90
2018-05-26T06:02:41.557Z,99.90
2018-05-26T06:05:10.486Z,99.90
2018-05-26T06:07:38.922Z,99.90
2018-05-26T06:10:07.723Z,99.90
2018-05-26T06:12:36.138Z,99.90
2018-05-26T06:15:05.376Z,99.90
2018-05-26T06:17:34.397Z,99.90
2018-05-26T06:20:02.892Z,99.90
2018-05-26T06:22:31.256Z,99.90
2018-05-26T06:24:59.740Z,99.90
2018-05-26T06:27:29.270Z,99.90
2018-05-26T06:29:57.484Z,99.90
2018-05-26T06:32:25.728Z,99.90
2018-05-26T06:34:54.027Z,99.90
2018-05-26T06:37:22.273Z,99.90
2018-05-26T06:39:51.495Z,99.90
2018-05-26T06:42:19.978Z,99.90
2018-05-26T06:44:48.257Z,99.90
2018-05-26T06:47:16.485Z,99.90
2018-05-26T06:49:44.743Z,99.90
2018-05-26T06:52:12.973Z,99.90
2018-05-26T06:54:41.239Z,99.90
2018-05-26T06:57:10.239Z,99.90
2018-05-26T06:59:38.528Z,99.90
2018-05-26T07:02:06.790Z,99.90
2018-05-26T07:04:35.198Z,99.90
2018-05-26T07:07:03.436Z,99.90
2018-05-26T07:09:31.703Z,99.90
2018-05-26T07:11:59.918Z,99.90
2018-05-26T07:14:28.156Z,99.90
2018-05-26T07:16:56.402Z,99.90
2018-05-26T07:19:24.594Z,99.90
2018-05-26T07:21:54.155Z,99.90
2018-05-26T07:24:23.044Z,99.90
2018-05-26T07:26:51.424Z,99.90
2018-05-26T07:29:19.662Z,99.90
2018-05-26T07:31:47.871Z,99.90
2018-05-26T07:34:16.077Z,99.90
2018-05-26T07:36:44.289Z,99.90
2018-05-26T07:39:13.316Z,99.90
2018-05-26T07:41:41.568Z,99.90
2018-05-26T07:44:09.820Z,99.90
2018-05-26T07:46:38.156Z,99.90
2018-05-26T07:49:06.400Z,99.90
2018-05-26T07:51:35.470Z,99.90
2018-05-26T07:54:04.591Z,99.90
2018-05-26T07:56:32.849Z,99.90
2018-05-26T07:59:01.992Z,99.90
2018-05-26T08:01:30.489Z,99.90
2018-05-26T08:03:58.891Z,99.90
2018-05-26T08:06:27.248Z,99.90
2018-05-26T08:08:55.746Z,99.90
2018-05-26T08:11:24.064Z,99.90
2018-05-26T08:13:52.380Z,99.90
2018-05-26T08:16:20.682Z,99.90
2018-05-26T08:18:49.787Z,99.90
2018-05-26T08:21:18.693Z,99.90
2018-05-26T08:23:47.159Z,99.90
2018-05-26T08:26:15.533Z,99.90
2018-05-26T08:28:43.811Z,99.90
2018-05-26T08:31:12.084Z,99.90
2018-05-26T08:33:40.463Z,99.90
2018-05-26T08:36:08.786Z,99.90
2018-05-26T08:38:38.173Z,99.90
2018-05-26T08:41:11.169Z,99.90
2018-05-26T08:43:40.203Z,99.90
2018-05-26T08:46:08.451Z,99.90
2018-05-26T08:48:37.514Z,99.90
2018-05-26T08:51:06.513Z,99.90
2018-05-26T08:53:35.121Z,99.90
2018-05-26T08:56:05.133Z,99.90
2018-05-26T08:58:34.211Z,99.90
2018-05-26T09:01:02.549Z,99.90
2018-05-26T09:03:30.871Z,99.90
2018-05-26T09:05:59.857Z,99.90
2018-05-26T09:08:28.124Z,99.90
2018-05-26T09:10:56.635Z,99.90
2018-05-26T09:13:25.958Z,99.90
2018-05-26T09:15:55.004Z,99.90
2018-05-26T09:18:23.295Z,99.90
2018-05-26T09:20:52.717Z,99.90
2018-05-26T09:23:21.793Z,99.90
2018-05-26T09:25:52.321Z,99.90
2018-05-26T09:28:20.716Z,99.90
2018-05-26T09:30:48.971Z,99.90
2018-05-26T09:33:18.070Z,99.90
2018-05-26T09:35:46.312Z,99.90
2018-05-26T09:38:14.656Z,99.90
2018-05-26T09:40:43.776Z,99.90
2018-05-26T09:43:12.116Z,99.90
2018-05-26T09:45:40.494Z,99.90
2018-05-26T09:48:08.921Z,99.90
2018-05-26T09:50:37.310Z,99.90
2018-05-26T09:53:07.378Z,99.90
2018-05-26T09:55:35.769Z,99.90
2018-05-26T09:58:04.300Z,99.90
2018-05-26T10:00:32.570Z,99.90
2018-05-26T10:03:01.724Z,99.90
2018-05-26T10:05:30.152Z,99.90
2018-05-26T10:07:59.366Z,99.90
2018-05-26T10:10:27.677Z,99.90
2018-05-26T10:12:56.058Z,99.90
2018-05-26T10:15:24.551Z,99.90
2018-05-26T10:17:52.824Z,99.90
2018-05-26T10:20:21.053Z,99.90
2018-05-26T10:22:49.429Z,99.90
2018-05-26T10:25:17.763Z,99.90
2018-05-26T10:27:46.126Z,99.90
2018-05-26T10:30:14.719Z,99.90
2018-05-26T10:32:43.599Z,99.90
2018-05-26T10:35:11.940Z,99.90
2018-05-26T10:37:40.287Z,99.90
2018-05-26T10:40:08.661Z,99.90
2018-05-26T10:42:37.149Z,99.90
2018-05-26T10:45:05.389Z,98.90
2018-05-26T10:47:33.641Z,99.90
2018-05-26T10:50:02.668Z,98.00
2018-05-26T10:52:31.761Z,95.50
2018-05-26T10:54:59.988Z,95.60
2018-05-26T10:57:28.471Z,96.20
2018-05-26T10:59:56.718Z,93.10
2018-05-26T11:02:25.607Z,96.10
2018-05-26T11:04:53.934Z,95.30
2018-05-26T11:07:22.234Z,95.00
2018-05-26T11:09:52.285Z,93.00
2018-05-26T11:12:20.503Z,92.90
2018-05-26T11:14:48.771Z,94.30
2018-05-26T11:17:17.150Z,94.30
2018-05-26T11:19:45.383Z,91.60
2018-05-26T11:22:13.695Z,91.80
2018-05-26T11:24:41.993Z,91.40
2018-05-26T11:27:10.334Z,93.50
2018-05-26T11:29:38.670Z,91.30
2018-05-26T11:32:06.851Z,90.60
2018-05-26T11:34:35.875Z,84.50
2018-05-26T11:37:04.304Z,84.60
2018-05-26T11:39:32.632Z,91.10
2018-05-26T11:42:00.958Z,89.20
2018-05-26T11:44:29.191Z,91.60
2018-05-26T11:46:58.146Z,89.10
2018-05-26T11:49:27.144Z,90.90
2018-05-26T11:51:56.746Z,91.50
2018-05-26T11:54:24.972Z,91.40
2018-05-26T11:56:53.939Z,99.90
2018-05-26T11:59:22.944Z,99.20
2018-05-26T12:01:52.519Z,98.20
2018-05-26T12:04:22.419Z,99.10
2018-05-26T12:06:50.993Z,98.90
2018-05-26T12:09:19.294Z,99.90
2018-05-26T12:11:47.655Z,97.10
2018-05-26T12:14:16.041Z,98.40
2018-05-26T12:16:44.269Z,98.80
2018-05-26T12:19:12.557Z,98.20
2018-05-26T12:21:40.897Z,97.40
2018-05-26T12:24:09.124Z,98.70
2018-05-26T12:26:37.413Z,96.50
2018-05-26T12:29:05.709Z,84.80
2018-05-26T12:31:34.215Z,83.80
2018-05-26T12:34:02.481Z,82.60
2018-05-26T12:36:30.713Z,78.80
2018-05-26T12:38:59.810Z,77.30
2018-05-26T12:41:29.008Z,77.30
2018-05-26T12:43:57.268Z,78.70
2018-05-26T12:46:25.711Z,80.80
2018-05-26T12:48:53.959Z,74.90
2018-05-26T12:51:22.779Z,79.90
2018-05-26T12:53:51.047Z,81.40
2018-05-26T12:56:21.833Z,78.40
2018-05-26T12:58:50.807Z,74.50
2018-05-26T13:01:19.011Z,74.10
2018-05-26T13:03:48.171Z,64.40
2018-05-26T13:06:16.466Z,64.30
2018-05-26T13:08:44.693Z,70.30
2018-05-26T13:11:12.948Z,68.40
2018-05-26T13:13:42.300Z,72.60
2018-05-26T13:16:10.524Z,72.40
2018-05-26T13:18:38.948Z,71.50
2018-05-26T13:21:07.983Z,65.90
2018-05-26T13:23:37.205Z,68.10
2018-05-26T13:26:05.476Z,65.00
2018-05-26T13:28:34.470Z,70.60
2018-05-26T13:34:01.559Z,73.00
2018-05-26T13:36:30.489Z,74.80
2018-05-26T13:38:58.702Z,74.40
2018-05-26T13:41:26.950Z,75.10
2018-05-26T13:43:55.950Z,71.90
2018-05-26T13:46:24.173Z,71.90
2018-05-26T13:48:52.432Z,70.80
2018-05-26T13:51:21.491Z,65.20
2018-05-26T13:53:52.328Z,93.30
2018-05-26T13:56:20.530Z,93.70
2018-05-26T13:58:48.717Z,96.20
2018-05-26T14:01:17.350Z,87.20
2018-05-26T14:03:45.691Z,78.10
2018-05-26T14:06:14.663Z,76.40
2018-05-26T14:08:43.741Z,76.50
2018-05-26T14:11:11.961Z,74.40
2018-05-26T14:13:40.349Z,71.80
2018-05-26T14:16:10.184Z,68.50
2018-05-26T14:18:39.829Z,68.30
2018-05-26T14:21:08.099Z,69.80
2018-05-26T14:23:36.356Z,73.20
2018-05-26T14:26:05.166Z,73.00
2018-05-26T14:28:33.579Z,69.70
2018-05-26T14:31:06.236Z,74.20
2018-05-26T14:33:34.758Z,75.00
2018-05-26T14:36:03.066Z,67.60
2018-05-26T14:38:31.399Z,72.30
2018-05-26T14:41:00.485Z,71.20
2018-05-26T14:43:28.800Z,71.60
2018-05-26T14:45:57.644Z,72.90
2018-05-26T14:48:26.025Z,66.90
2018-05-26T14:50:54.330Z,65.60
2018-05-26T14:53:22.545Z,65.50
2018-05-26T14:55:52.176Z,66.70
2018-05-26T14:58:22.335Z,70.20
2018-05-26T15:00:51.711Z,69.80
2018-05-26T15:03:21.486Z,70.80
2018-05-26T15:05:49.878Z,70.70
2018-05-26T15:08:18.177Z,71.40
2018-05-26T15:10:46.505Z,66.90
2018-05-26T15:13:15.721Z,68.50
2018-05-26T15:15:43.877Z,68.50
2018-05-26T15:18:12.962Z,70.70
2018-05-26T15:20:42.694Z,69.30
2018-05-26T15:23:11.013Z,69.50
2018-05-26T15:25:39.334Z,67.30
2018-05-26T15:28:08.630Z,69.40
2018-05-26T15:30:37.111Z,64.60
2018-05-26T15:33:05.388Z,67.20
2018-05-26T15:35:33.599Z,67.80
2018-05-26T15:38:02.065Z,66.20
2018-05-26T15:40:30.301Z,70.90
2018-05-26T15:42:58.641Z,65.60
2018-05-26T15:45:31.048Z,63.90
2018-05-26T15:47:59.293Z,63.90
2018-05-26T15:50:28.418Z,62.60
2018-05-26T15:52:57.261Z,62.50
2018-05-26T15:55:25.622Z,63.90
2018-05-26T15:57:53.853Z,62.40
2018-05-26T16:00:22.859Z,61.40
2018-05-26T16:02:51.183Z,61.30
2018-05-26T16:05:19.473Z,62.30
2018-05-26T16:07:47.703Z,60.00
2018-05-26T16:10:15.970Z,58.80
2018-05-26T16:12:44.785Z,60.10
2018-05-26T16:15:14.001Z,60.40
2018-05-26T16:17:42.340Z,60.30
2018-05-26T16:20:11.389Z,58.20
2018-05-26T16:22:39.592Z,58.80
2018-05-26T16:25:08.846Z,58.60
2018-05-26T16:27:37.093Z,58.50
2018-05-26T16:30:05.604Z,59.00
2018-05-26T16:32:33.927Z,59.80
2018-05-26T16:35:02.207Z,61.80
2018-05-26T16:37:31.675Z,59.40
2018-05-26T16:40:00.068Z,56.50
2018-05-26T16:42:28.327Z,56.20
2018-05-26T16:44:57.918Z,58.00
2018-05-26T16:47:26.333Z,55.80
2018-05-26T16:49:54.594Z,54.70
2018-05-26T16:52:23.167Z,56.80
2018-05-26T16:54:51.399Z,58.50
2018-05-26T16:57:19.607Z,57.50
2018-05-26T16:59:48.442Z,58.40
2018-05-26T17:02:17.335Z,57.50
2018-05-26T17:04:46.628Z,58.90
2018-05-26T17:07:14.891Z,58.80
2018-05-26T17:09:44.019Z,60.50
2018-05-26T17:12:12.264Z,62.30
2018-05-26T17:14:40.568Z,59.60
2018-05-26T17:17:08.793Z,62.00
2018-05-26T17:19:37.818Z,64.40
2018-05-26T17:22:06.084Z,64.30
2018-05-26T17:24:34.941Z,63.60
2018-05-26T17:27:04.681Z,63.80
2018-05-26T17:29:34.721Z,64.50
2018-05-26T17:32:05.201Z,63.60
2018-05-26T17:34:33.646Z,63.70
2018-05-26T17:37:02.644Z,65.70
2018-05-26T17:39:30.893Z,66.90
2018-05-26T17:42:03.521Z,64.90
2018-05-26T17:44:32.169Z,66.40
2018-05-26T17:47:01.615Z,65.80
2018-05-26T17:49:29.892Z,65.30
2018-05-26T17:51:58.818Z,66.80
2018-05-26T17:54:27.060Z,68.10
2018-05-26T17:56:55.360Z,68.70
2018-05-26T17:59:26.459Z,69.40
2018-05-26T18:02:14.507Z,70.40
2018-05-26T18:04:47.347Z,71.60
2018-05-26T18:07:16.333Z,73.00
2018-05-26T18:09:45.572Z,72.90
2018-05-26T18:12:14.327Z,73.80
2018-05-26T18:14:48.245Z,73.20
2018-05-26T18:17:23.130Z,72.10
2018-05-26T18:19:52.552Z,73.10
2018-05-26T18:22:21.764Z,73.00
2018-05-26T18:24:52.818Z,73.60
2018-05-26T18:27:21.916Z,73.80
2018-05-26T18:29:50.937Z,76.40
2018-05-26T18:32:20.205Z,76.60
2018-05-26T18:34:49.033Z,76.70
2018-05-26T18:37:18.933Z,76.30
2018-05-26T18:39:49.703Z,76.40
2018-05-26T18:45:00.311Z,79.70
2018-05-26T18:47:29.357Z,80.10
2018-05-26T18:49:59.298Z,81.30
2018-05-26T18:52:32.004Z,81.20
2018-05-26T18:55:03.607Z,83.20
2018-05-26T18:57:36.125Z,84.30
2018-05-26T19:00:06.916Z,86.10
2018-05-26T19:02:47.575Z,88.40
2018-05-26T19:05:25.153Z,90.50
2018-05-26T19:08:04.423Z,90.40
2018-05-26T19:10:35.514Z,91.10
2018-05-26T19:13:05.092Z,91.80
2018-05-26T19:15:39.154Z,92.50
2018-05-26T19:18:30.432Z,93.10
2018-05-26T19:21:08.365Z,94.00
2018-05-26T19:23:41.666Z,94.00
2018-05-26T19:26:18.454Z,94.90
2018-05-26T19:28:57.951Z,94.60
2018-05-26T19:34:15.791Z,96.00
2018-05-26T19:36:50.911Z,96.00
2018-05-26T19:44:42.659Z,98.70
2018-05-26T19:47:10.975Z,99.90
2018-05-26T19:49:40.012Z,99.90
2018-05-26T19:52:08.213Z,99.90
2018-05-26T19:54:36.481Z,99.90
2018-05-26T19:57:10.348Z,99.90
2018-05-26T19:59:39.330Z,99.90
2018-05-26T20:02:08.379Z,99.90
2018-05-26T20:04:36.659Z,99.90
2018-05-26T20:07:05.062Z,99.90
2018-05-26T20:09:34.853Z,99.90
2018-05-26T20:12:03.224Z,99.90
2018-05-26T20:14:32.076Z,99.90
2018-05-26T20:17:00.555Z,99.90
2018-05-26T20:19:28.892Z,99.90
2018-05-26T20:21:57.217Z,99.90
2018-05-26T20:24:25.484Z,99.90
2018-05-26T20:26:54.726Z,99.90
2018-05-26T20:29:22.946Z,99.90
2018-05-26T20:31:51.209Z,99.90
2018-05-26T20:34:19.684Z,99.90
2018-05-26T20:36:48.064Z,99.90
2018-05-26T20:39:16.339Z,99.90
2018-05-26T20:41:44.610Z,99.90
2018-05-26T20:44:12.919Z,99.90
2018-05-26T20:46:43.497Z,99.90
2018-05-26T20:49:11.813Z,99.90
2018-05-26T20:51:40.057Z,99.90
2018-05-26T20:54:08.307Z,99.90
2018-05-26T20:56:36.636Z,99.90
2018-05-26T20:59:05.040Z,99.90
2018-05-26T21:01:33.301Z,99.90
2018-05-26T21:04:01.572Z,99.90
2018-05-26T21:06:29.886Z,99.90
2018-05-26T21:08:58.904Z,99.90
2018-05-26T21:11:28.232Z,99.90
2018-05-26T21:13:56.630Z,99.90
2018-05-26T21:16:24.991Z,99.90
2018-05-26T21:18:53.251Z,99.90
2018-05-26T21:21:22.224Z,99.90
2018-05-26T21:23:50.475Z,99.90
2018-05-26T21:26:18.743Z,99.90
2018-05-26T21:28:47.027Z,99.90
2018-05-26T21:31:15.972Z,99.90
2018-05-26T21:33:44.395Z,99.90
2018-05-26T21:36:12.674Z,99.90
2018-05-26T21:38:40.936Z,99.90
2018-05-26T21:41:09.289Z,99.90
2018-05-26T21:43:38.651Z,99.90
2018-05-26T21:46:08.943Z,99.90
2018-05-26T21:48:37.520Z,99.90
2018-05-26T21:51:05.824Z,99.90
2018-05-26T21:53:34.742Z,99.90
2018-05-26T21:56:03.055Z,99.90
2018-05-26T21:58:31.381Z,99.90
2018-05-26T22:00:59.772Z,99.90
2018-05-26T22:03:28.044Z,99.90
2018-05-26T22:05:56.357Z,99.90
2018-05-26T22:08:25.516Z,99.90
2018-05-26T22:10:54.336Z,99.90
2018-05-26T22:13:27.766Z,99.90
2018-05-26T22:15:58.953Z,99.90
2018-05-26T22:18:27.440Z,99.90
2018-05-26T22:20:55.867Z,99.90
2018-05-26T22:23:24.728Z,99.90
2018-05-26T22:25:52.994Z,99.90
2018-05-26T22:28:21.254Z,99.90
2018-05-26T22:30:49.488Z,99.90
2018-05-26T22:33:19.140Z,99.90
2018-05-26T22:35:47.544Z,99.90
2018-05-26T22:38:15.949Z,99.90
2018-05-26T22:40:44.675Z,99.90
2018-05-26T22:43:13.747Z,99.90
2018-05-26T22:45:42.909Z,99.90
2018-05-26T22:48:11.139Z,99.90
2018-05-26T22:50:40.312Z,99.90
2018-05-26T22:53:08.586Z,99.90
2018-05-26T22:55:38.364Z,99.90
2018-05-26T22:58:06.662Z,99.90
2018-05-26T23:00:35.863Z,99.90
2018-05-26T23:03:04.170Z,99.90
2018-05-26T23:05:33.153Z,99.90
2018-05-26T23:08:01.433Z,99.90
2018-05-26T23:10:29.686Z,99.90
2018-05-26T23:12:58.055Z,99.90
2018-05-26T23:15:26.955Z,99.90
2018-05-26T23:17:55.189Z,99.90
2018-05-26T23:20:24.226Z,99.90
2018-05-26T23:22:52.507Z,99.90
2018-05-26T23:25:20.883Z,99.90
2018-05-26T23:27:49.116Z,99.90
2018-05-26T23:30:18.189Z,99.90
2018-05-26T23:32:46.424Z,99.90
2018-05-26T23:35:15.675Z,99.90
2018-05-26T23:37:44.029Z,99.90
2018-05-26T23:40:13.063Z,99.90
2018-05-26T23:42:41.266Z,99.90
2018-05-26T23:45:09.504Z,99.90
2018-05-26T23:47:37.872Z,99.90
2018-05-26T23:50:06.121Z,99.90
2018-05-26T23:52:34.371Z,99.90
2018-05-26T23:55:03.346Z,99.90
2018-05-26T23:57:31.640Z,99.90
